Time;durP1;ratioP1;P1;durP2;ratioP2;P2;SDS_P1;SDS_P2;PMS_P1;PMS_P2;Temp;Humidity;BMP_temperature;BMP_pressure;BME280_temperature;BME280_humidity;BME280_pressure;Samples;Min_cycle;Max_cycle;Signal;HPM_P1;HPM_P2
2021/09/22 00:02:21;;;;;;;7.95;4.22;;;16.00;99.90;;;;;;4994086;28;20489;-85
2021/09/22 00:04:47;;;;;;;6.30;4.18;;;16.00;99.90;;;;;;4994299;28;20026;-77
2021/09/22 00:07:14;;;;;;;10.32;4.82;;;16.00;99.90;;;;;;4993952;28;20031;-87
2021/09/22 00:09:39;;;;;;;6.80;4.53;;;15.90;99.90;;;;;;4994491;28;20065;-84
2021/09/22 00:12:05;;;;;;;11.15;4.80;;;15.90;99.90;;;;;;4994129;28;20512;-89
2021/09/22 00:14:31;;;;;;;8.98;4.75;;;16.00;99.90;;;;;;4994237;28;20496;-85
2021/09/22 00:16:57;;;;;;;5.43;4.80;;;16.10;99.90;;;;;;4993718;28;20110;-87
2021/09/22 00:19:22;;;;;;;7.45;5.32;;;16.10;99.90;;;;;;4994169;28;20027;-76
2021/09/22 00:21:48;;;;;;;8.63;4.10;;;16.20;99.90;;;;;;4993634;28;20041;-81
2021/09/22 00:24:14;;;;;;;7.72;4.90;;;16.20;99.90;;;;;;4993552;28;20093;-85
2021/09/22 00:26:40;;;;;;;8.10;4.80;;;16.20;99.90;;;;;;4993971;28;20029;-76
2021/09/22 00:29:05;;;;;;;6.95;4.30;;;16.20;99.90;;;;;;4993806;28;20062;-75
2021/09/22 00:31:35;;;;;;;11.35;4.50;;;16.30;99.90;;;;;;4992306;28;20039;-88
2021/09/22 00:34:01;;;;;;;11.05;4.78;;;16.30;99.90;;;;;;4993718;28;20034;-87
2021/09/22 00:36:26;;;;;;;7.30;4.25;;;16.20;99.90;;;;;;4993539;28;20073;-75
2021/09/22 00:38:52;;;;;;;5.50;4.35;;;16.20;99.90;;;;;;4993848;28;20375;-86
2021/09/22 00:41:18;;;;;;;14.75;4.45;;;16.10;99.90;;;;;;4993801;28;20038;-86
2021/09/22 00:43:44;;;;;;;6.32;4.50;;;16.10;99.90;;;;;;4993652;28;20035;-89
2021/09/22 00:46:09;;;;;;;5.90;4.43;;;16.10;99.90;;;;;;4993444;28;20030;-74
2021/09/22 00:48:35;;;;;;;7.88;4.50;;;16.20;99.90;;;;;;4993479;28;20042;-74
2021/09/22 00:51:05;;;;;;;7.70;4.72;;;16.20;99.90;;;;;;4994101;28;20050;-77
2021/09/22 00:53:32;;;;;;;10.52;5.20;;;16.20;99.90;;;;;;4993555;28;20027;-77
2021/09/22 00:55:59;;;;;;;8.88;5.30;;;16.10;99.90;;;;;;4993153;28;20039;-75
2021/09/22 00:58:27;;;;;;;8.35;4.90;;;15.90;99.90;;;;;;4976016;28;20436;-75
2021/09/22 01:00:53;;;;;;;6.57;4.45;;;15.90;99.90;;;;;;4993451;28;20109;-77
2021/09/22 01:03:19;;;;;;;7.25;5.15;;;15.80;99.90;;;;;;4993590;28;20118;-86
2021/09/22 01:05:45;;;;;;;7.75;4.47;;;15.70;99.90;;;;;;4993452;28;20085;-80
2021/09/22 01:08:14;;;;;;;6.57;4.68;;;15.70;99.90;;;;;;4993518;28;20101;-87
2021/09/22 01:10:40;;;;;;;6.53;5.13;;;15.60;99.90;;;;;;4993640;28;20035;-77
2021/09/22 01:13:05;;;;;;;15.80;4.82;;;15.60;99.90;;;;;;4993303;28;20034;-88
2021/09/22 01:15:36;;;;;;;6.57;4.93;;;15.60;99.90;;;;;;4995804;28;20045;-76
2021/09/22 01:18:02;;;;;;;11.43;4.78;;;15.60;99.90;;;;;;4997278;28;20030;-87
2021/09/22 01:20:30;;;;;;;9.38;5.40;;;15.50;99.90;;;;;;4996872;28;20026;-73
2021/09/22 01:23:00;;;;;;;5.70;4.63;;;15.50;99.90;;;;;;4997136;28;20159;-86
2021/09/22 01:25:26;;;;;;;12.00;4.82;;;15.40;99.90;;;;;;4996835;28;20065;-79
2021/09/22 01:27:56;;;;;;;8.00;5.03;;;15.40;99.90;;;;;;4996617;28;20106;-73
2021/09/22 01:30:22;;;;;;;8.30;5.13;;;15.40;99.90;;;;;;4997037;28;20029;-82
2021/09/22 01:32:58;;;;;;;18.25;5.00;;;15.40;99.90;;;;;;4996652;28;20038;-74
2021/09/22 01:35:25;;;;;;;5.95;4.55;;;15.40;99.90;;;;;;4996408;28;20034;-75
2021/09/22 01:37:51;;;;;;;5.93;4.55;;;15.40;99.90;;;;;;4996426;28;20026;-86
2021/09/22 01:40:17;;;;;;;12.48;5.45;;;15.30;99.90;;;;;;4995800;28;20097;-81
2021/09/22 01:42:44;;;;;;;7.00;5.13;;;15.30;99.90;;;;;;4995734;28;20038;-84
2021/09/22 01:45:12;;;;;;;9.13;5.13;;;15.40;99.90;;;;;;4995625;28;20113;-80
2021/09/22 01:47:38;;;;;;;5.85;4.72;;;15.30;99.90;;;;;;4995264;28;20031;-84
2021/09/22 01:50:08;;;;;;;5.85;4.88;;;15.30;99.90;;;;;;4995549;28;20488;-77
2021/09/22 01:52:34;;;;;;;8.48;5.05;;;15.30;99.90;;;;;;4995688;28;20374;-73
2021/09/22 01:55:00;;;;;;;8.65;5.22;;;15.30;99.90;;;;;;4995399;28;20134;-87
2021/09/22 01:57:27;;;;;;;7.43;5.22;;;15.40;99.90;;;;;;4995984;28;20058;-74
2021/09/22 01:59:53;;;;;;;5.57;4.43;;;15.30;99.90;;;;;;4996462;28;20567;-79
2021/09/22 02:02:19;;;;;;;8.05;5.15;;;15.30;99.90;;;;;;4996078;28;20035;-87
2021/09/22 02:04:45;;;;;;;6.88;5.20;;;15.30;99.90;;;;;;4996280;28;20034;-76
2021/09/22 02:07:11;;;;;;;8.85;4.78;;;15.30;99.90;;;;;;4996113;28;20084;-89
2021/09/22 02:09:36;;;;;;;7.97;4.97;;;15.40;99.90;;;;;;4996394;28;20037;-87
2021/09/22 02:12:03;;;;;;;7.70;5.05;;;15.50;99.90;;;;;;4996157;28;20042;-91
2021/09/22 02:14:29;;;;;;;16.85;4.97;;;15.50;99.90;;;;;;4996201;28;20026;-74
2021/09/22 02:16:55;;;;;;;8.93;4.85;;;15.50;99.90;;;;;;4995880;28;20042;-87
2021/09/22 02:19:22;;;;;;;8.90;5.45;;;15.50;99.90;;;;;;4996191;28;20563;-75
2021/09/22 02:21:48;;;;;;;8.18;4.88;;;15.50;99.90;;;;;;4995774;28;20384;-74
2021/09/22 02:24:13;;;;;;;8.70;5.55;;;15.50;99.90;;;;;;4995408;28;20033;-75
2021/09/22 02:26:40;;;;;;;10.27;4.60;;;15.40;99.90;;;;;;4994068;28;20030;-86
2021/09/22 02:29:05;;;;;;;6.07;4.72;;;15.40;99.90;;;;;;4995567;28;20038;-76
2021/09/22 02:31:31;;;;;;;5.78;4.35;;;15.40;99.90;;;;;;4995722;28;20082;-75
2021/09/22 02:33:57;;;;;;;12.95;4.70;;;15.40;99.90;;;;;;4995553;28;20037;-77
2021/09/22 02:36:22;;;;;;;7.18;5.13;;;15.40;99.90;;;;;;4995671;28;20100;-76
2021/09/22 02:38:48;;;;;;;5.60;4.50;;;15.30;99.90;;;;;;4995576;28;20034;-75
2021/09/22 02:41:14;;;;;;;7.10;5.10;;;15.20;99.90;;;;;;4995470;28;20481;-76
2021/09/22 02:43:39;;;;;;;5.30;4.40;;;15.20;99.90;;;;;;4995356;28;20497;-79
2021/09/22 02:46:05;;;;;;;5.93;4.60;;;15.20;99.90;;;;;;4995943;28;20027;-75
2021/09/22 02:48:31;;;;;;;7.15;4.57;;;15.20;99.90;;;;;;4995043;28;20512;-83
2021/09/22 02:50:57;;;;;;;6.45;4.78;;;15.20;99.90;;;;;;4994976;28;20436;-87
2021/09/22 02:53:22;;;;;;;8.73;4.20;;;15.20;99.90;;;;;;4995205;28;20045;-88
2021/09/22 02:55:48;;;;;;;9.13;4.55;;;15.20;99.90;;;;;;4995165;28;20049;-75
2021/09/22 02:58:14;;;;;;;5.43;4.53;;;15.20;99.90;;;;;;4995509;28;20026;-75
2021/09/22 03:00:40;;;;;;;7.05;4.70;;;15.20;99.90;;;;;;4994823;28;20392;-81
2021/09/22 03:03:06;;;;;;;5.95;4.35;;;15.20;99.90;;;;;;4995233;28;20541;-79
2021/09/22 03:05:32;;;;;;;7.45;4.35;;;15.10;99.90;;;;;;4995300;28;20031;-87
2021/09/22 03:07:58;;;;;;;8.75;5.00;;;15.10;99.90;;;;;;4994821;28;20034;-75
2021/09/22 03:10:24;;;;;;;6.90;4.40;;;15.10;99.90;;;;;;4994927;28;20136;-75
2021/09/22 03:12:49;;;;;;;6.50;4.72;;;15.00;99.90;;;;;;4994821;28;20033;-75
2021/09/22 03:15:15;;;;;;;5.43;4.30;;;15.00;99.90;;;;;;4994907;28;20043;-87
2021/09/22 03:17:41;;;;;;;10.23;4.28;;;15.00;99.90;;;;;;4994890;28;20441;-87
2021/09/22 03:20:08;;;;;;;6.72;4.80;;;15.00;99.90;;;;;;4994772;28;20041;-75
2021/09/22 03:22:34;;;;;;;8.73;4.60;;;15.00;99.90;;;;;;4995087;28;20116;-86
2021/09/22 03:24:59;;;;;;;5.93;4.47;;;15.00;99.90;;;;;;4995025;28;20109;-75
2021/09/22 03:27:25;;;;;;;12.10;4.53;;;15.00;99.90;;;;;;4994503;28;20056;-88
2021/09/22 03:29:51;;;;;;;9.35;5.22;;;15.00;99.90;;;;;;4994762;28;20037;-87
2021/09/22 03:32:17;;;;;;;12.30;4.70;;;15.10;99.90;;;;;;4994494;28;20022;-75
2021/09/22 03:34:42;;;;;;;8.40;4.40;;;15.10;99.90;;;;;;4994292;28;20109;-75
2021/09/22 03:37:08;;;;;;;8.25;4.80;;;15.10;99.90;;;;;;4993848;28;20038;-75
2021/09/22 03:39:34;;;;;;;10.32;5.10;;;15.10;99.90;;;;;;4994431;28;20022;-86
2021/09/22 03:42:00;;;;;;;5.13;4.18;;;15.10;99.90;;;;;;4994492;28;20030;-78
2021/09/22 03:44:26;;;;;;;8.95;4.47;;;15.10;99.90;;;;;;4994151;28;20110;-89
2021/09/22 03:46:53;;;;;;;7.60;3.88;;;15.00;99.90;;;;;;4994003;28;20041;-73
2021/09/22 03:49:19;;;;;;;6.20;4.38;;;15.10;99.90;;;;;;4993979;28;20061;-80
2021/09/22 03:51:45;;;;;;;7.00;4.80;;;15.10;99.90;;;;;;4993984;28;20461;-87
2021/09/22 03:54:11;;;;;;;5.18;4.43;;;15.10;99.90;;;;;;4994211;28;20031;-75
2021/09/22 03:56:37;;;;;;;7.25;4.75;;;15.10;99.90;;;;;;4994092;28;20038;-76
2021/09/22 03:59:02;;;;;;;5.15;4.65;;;15.00;99.90;;;;;;4994092;28;20061;-89
2021/09/22 04:01:28;;;;;;;5.95;4.40;;;15.00;99.90;;;;;;4994153;28;20089;-90
2021/09/22 04:03:54;;;;;;;5.38;4.05;;;15.10;99.90;;;;;;4994215;28;20034;-77
2021/09/22 04:06:20;;;;;;;6.10;4.78;;;15.10;99.90;;;;;;4993832;28;20034;-87
2021/09/22 04:08:45;;;;;;;5.05;4.25;;;15.10;99.90;;;;;;4993914;28;20401;-75
2021/09/22 04:11:11;;;;;;;7.10;4.70;;;15.10;99.90;;;;;;4993865;28;20076;-88
2021/09/22 04:13:37;;;;;;;7.90;4.53;;;15.10;99.90;;;;;;4993890;28;20027;-76
2021/09/22 04:16:03;;;;;;;7.95;3.92;;;15.10;99.90;;;;;;4993870;28;20085;-88
2021/09/22 04:18:28;;;;;;;5.40;4.60;;;15.20;99.90;;;;;;4993871;28;20397;-86
2021/09/22 04:20:54;;;;;;;8.98;4.55;;;15.10;99.90;;;;;;4993642;28;20030;-89
2021/09/22 04:23:20;;;;;;;6.03;4.35;;;15.20;99.90;;;;;;4993978;28;20034;-77
2021/09/22 04:25:45;;;;;;;12.40;4.50;;;15.20;99.90;;;;;;4994066;28;20109;-74
2021/09/22 04:28:12;;;;;;;11.07;4.97;;;15.20;99.90;;;;;;4993797;28;20026;-80
2021/09/22 04:30:37;;;;;;;6.10;4.55;;;15.20;99.90;;;;;;4993873;28;20031;-74
2021/09/22 04:33:03;;;;;;;11.95;4.68;;;15.20;99.90;;;;;;4993587;28;20022;-86
2021/09/22 04:35:30;;;;;;;5.45;4.22;;;15.20;99.90;;;;;;4993627;28;20045;-86
2021/09/22 04:37:57;;;;;;;11.43;5.03;;;15.10;99.90;;;;;;4993876;28;20028;-76
2021/09/22 04:40:28;;;;;;;7.68;4.80;;;15.10;99.90;;;;;;4993493;28;20030;-75
2021/09/22 04:42:54;;;;;;;8.50;4.03;;;15.10;99.90;;;;;;4993676;28;20033;-75
2021/09/22 04:45:22;;;;;;;5.60;4.30;;;15.10;99.90;;;;;;4993571;28;20034;-86
2021/09/22 04:47:48;;;;;;;7.15;4.85;;;15.10;99.90;;;;;;4993037;28;20018;-86
2021/09/22 04:50:15;;;;;;;5.78;4.82;;;15.10;99.90;;;;;;4996094;28;20034;-84
2021/09/22 04:52:40;;;;;;;14.00;4.60;;;15.20;99.90;;;;;;4997366;28;20040;-74
2021/09/22 04:55:06;;;;;;;12.63;4.63;;;15.20;99.90;;;;;;4997235;28;20138;-88
2021/09/22 04:57:33;;;;;;;7.78;4.78;;;15.10;99.90;;;;;;4997242;28;20035;-72
2021/09/22 04:59:58;;;;;;;5.82;4.50;;;15.10;99.90;;;;;;4997295;28;20034;-73
2021/09/22 05:02:25;;;;;;;7.65;4.70;;;15.10;99.90;;;;;;4997058;28;20388;-87
2021/09/22 05:04:50;;;;;;;7.72;4.60;;;15.10;99.90;;;;;;4997149;28;20080;-83
2021/09/22 05:07:16;;;;;;;4.82;4.32;;;15.10;99.90;;;;;;4997107;28;20483;-79
2021/09/22 05:09:42;;;;;;;4.97;4.00;;;15.10;99.90;;;;;;4997250;28;20110;-74
2021/09/22 05:12:07;;;;;;;10.77;4.40;;;15.20;99.90;;;;;;4997135;28;20038;-80
2021/09/22 05:14:33;;;;;;;12.13;5.10;;;15.10;99.90;;;;;;4996760;28;20030;-87
2021/09/22 05:16:59;;;;;;;6.88;4.68;;;15.20;99.90;;;;;;4996891;28;20493;-85
2021/09/22 05:19:26;;;;;;;7.38;4.32;;;15.30;99.90;;;;;;4996894;28;20027;-86
2021/09/22 05:21:52;;;;;;;13.13;5.53;;;15.30;99.90;;;;;;4996835;28;20484;-85
2021/09/22 05:24:18;;;;;;;8.73;4.72;;;15.40;99.90;;;;;;4996724;28;20026;-79
2021/09/22 05:26:45;;;;;;;7.32;4.40;;;15.50;99.90;;;;;;4996822;28;20029;-86
2021/09/22 05:29:11;;;;;;;21.70;5.38;;;15.60;99.90;;;;;;4995546;28;20034;-74
2021/09/22 05:31:36;;;;;;;11.15;4.88;;;15.60;99.90;;;;;;4996718;28;20498;-78
2021/09/22 05:34:02;;;;;;;12.50;5.05;;;15.70;99.90;;;;;;4996431;28;20045;-86
2021/09/22 05:36:28;;;;;;;7.78;4.53;;;15.70;99.90;;;;;;4996397;28;20042;-86
2021/09/22 05:38:54;;;;;;;8.77;4.63;;;15.70;99.90;;;;;;4996450;28;20026;-85
2021/09/22 05:41:19;;;;;;;13.40;5.78;;;15.80;99.90;;;;;;4995803;28;20041;-79
2021/09/22 05:43:45;;;;;;;10.35;4.57;;;15.90;99.90;;;;;;4996061;28;20081;-81
2021/09/22 05:46:11;;;;;;;10.40;5.13;;;16.00;99.90;;;;;;4995596;28;20035;-74
2021/09/22 05:48:36;;;;;;;6.78;4.13;;;16.10;99.90;;;;;;4995147;28;20038;-78
2021/09/22 05:51:02;;;;;;;8.65;4.57;;;16.10;99.90;;;;;;4995632;28;20045;-77
2021/09/22 05:53:28;;;;;;;6.25;4.43;;;16.10;99.90;;;;;;4995904;28;20030;-78
2021/09/22 05:55:54;;;;;;;8.32;4.80;;;16.10;99.90;;;;;;4996113;28;20397;-77
2021/09/22 05:58:20;;;;;;;6.93;4.47;;;16.10;99.90;;;;;;4978708;28;20034;-90
2021/09/22 06:00:49;;;;;;;8.02;4.13;;;16.10;99.90;;;;;;4995292;28;20467;-77
2021/09/22 06:03:14;;;;;;;7.07;4.57;;;16.20;99.90;;;;;;4996043;28;20031;-77
2021/09/22 06:05:40;;;;;;;6.72;4.78;;;16.20;99.90;;;;;;4995449;28;20037;-77
2021/09/22 06:08:07;;;;;;;8.05;4.22;;;16.20;99.90;;;;;;4995510;28;20400;-89
2021/09/22 06:10:34;;;;;;;7.50;4.68;;;16.20;99.90;;;;;;4995514;28;20500;-86
2021/09/22 06:12:59;;;;;;;7.05;4.00;;;16.30;99.90;;;;;;4995804;28;20377;-88
2021/09/22 06:15:25;;;;;;;7.68;4.80;;;16.30;99.90;;;;;;4995135;28;20093;-76
2021/09/22 06:17:51;;;;;;;9.60;4.32;;;16.40;99.90;;;;;;4995527;28;20029;-87
2021/09/22 06:20:18;;;;;;;9.18;4.68;;;16.40;99.90;;;;;;4995646;28;20023;-88
2021/09/22 06:22:44;;;;;;;6.32;4.32;;;16.50;99.90;;;;;;4995973;28;20571;-90
2021/09/22 06:25:14;;;;;;;9.27;4.28;;;16.40;99.90;;;;;;4995930;28;20030;-88
2021/09/22 06:27:40;;;;;;;12.80;4.97;;;16.50;99.90;;;;;;4996001;28;20043;-90
2021/09/22 06:30:07;;;;;;;9.85;4.28;;;16.50;99.90;;;;;;4995670;28;20035;-80
2021/09/22 06:32:33;;;;;;;12.40;4.50;;;16.50;99.90;;;;;;4996206;28;20497;-76
2021/09/22 06:34:59;;;;;;;8.65;4.18;;;16.60;99.90;;;;;;4996163;28;20096;-75
2021/09/22 06:37:24;;;;;;;6.45;4.53;;;16.60;99.90;;;;;;4995307;28;20061;-79
2021/09/22 06:39:50;;;;;;;9.77;4.45;;;16.60;99.90;;;;;;4995415;28;20070;-74
2021/09/22 06:42:16;;;;;;;6.63;4.20;;;16.80;99.90;;;;;;4995699;28;20499;-82
2021/09/22 06:44:42;;;;;;;7.57;4.75;;;16.80;99.90;;;;;;4995754;28;20026;-90
2021/09/22 06:47:08;;;;;;;8.68;4.45;;;16.90;99.90;;;;;;4995454;28;20041;-76
2021/09/22 06:49:34;;;;;;;9.55;4.47;;;17.00;99.90;;;;;;4995080;28;20121;-76
2021/09/22 06:52:00;;;;;;;12.93;5.28;;;17.10;99.90;;;;;;4995787;28;20466;-91
2021/09/22 06:54:25;;;;;;;14.82;4.97;;;17.20;99.90;;;;;;4995288;28;20031;-76
2021/09/22 06:56:51;;;;;;;24.80;5.40;;;17.40;99.90;;;;;;4995250;28;20046;-90
2021/09/22 06:59:18;;;;;;;20.33;6.30;;;17.70;99.90;;;;;;4995517;28;20034;-76
2021/09/22 07:01:44;;;;;;;11.63;5.47;;;18.10;99.90;;;;;;4994842;28;20109;-76
2021/09/22 07:04:10;;;;;;;12.32;4.50;;;18.30;99.90;;;;;;4994902;28;20027;-76
2021/09/22 07:06:36;;;;;;;9.52;4.07;;;18.50;99.90;;;;;;4995123;28;20089;-78
2021/09/22 07:09:01;;;;;;;4.57;3.70;;;18.70;99.90;;;;;;4995725;28;20385;-91
2021/09/22 07:11:27;;;;;;;6.18;3.63;;;19.00;99.90;;;;;;4976926;28;20400;-90
2021/09/22 07:13:53;;;;;;;9.60;3.40;;;19.00;99.90;;;;;;4994541;28;20034;-76
2021/09/22 07:16:19;;;;;;;5.80;3.83;;;18.90;99.90;;;;;;4995025;28;20073;-89
2021/09/22 07:18:45;;;;;;;6.03;3.70;;;18.90;99.90;;;;;;4994984;28;20457;-90
2021/09/22 07:21:14;;;;;;;9.57;3.78;;;19.00;99.90;;;;;;4994743;28;20050;-78
2021/09/22 07:23:40;;;;;;;8.93;3.50;;;19.30;99.90;;;;;;4994738;28;20031;-89
2021/09/22 07:29:10;;;;;;;5.32;3.25;;;20.20;99.80;;;;;;4994802;28;20043;-93
2021/09/22 07:31:36;;;;;;;9.10;3.30;;;20.90;98.90;;;;;;4992870;28;20450;-83
2021/09/22 07:34:03;;;;;;;4.85;3.30;;;21.40;98.40;;;;;;4994864;28;20030;-90
2021/09/22 07:36:30;;;;;;;11.05;3.53;;;21.70;97.70;;;;;;4994071;28;20484;-92
2021/09/22 07:38:56;;;;;;;8.18;2.83;;;22.60;97.50;;;;;;4994898;28;20042;-93
2021/09/22 07:41:22;;;;;;;5.70;3.30;;;24.10;95.50;;;;;;4995393;28;20061;-91
2021/09/22 07:43:49;;;;;;;8.18;3.83;;;25.10;94.10;;;;;;4995389;28;20026;-92
2021/09/22 07:46:14;;;;;;;10.23;2.90;;;25.30;93.20;;;;;;4994304;28;20046;-92
2021/09/22 07:48:45;;;;;;;7.95;2.80;;;25.00;93.00;;;;;;4994683;28;20042;-88
2021/09/22 07:51:14;;;;;;;5.03;3.13;;;25.00;93.20;;;;;;4994290;28;20057;-93
2021/09/22 07:53:40;;;;;;;4.50;3.05;;;25.60;92.90;;;;;;4994447;28;20057;-92
2021/09/22 07:56:06;;;;;;;11.38;3.10;;;26.20;92.00;;;;;;4995324;28;20132;-93
2021/09/22 07:58:32;;;;;;;6.00;3.15;;;25.90;91.90;;;;;;4994592;28;20038;-78
2021/09/22 08:00:58;;;;;;;13.00;3.17;;;25.30;92.30;;;;;;4994275;28;20042;-91
2021/09/22 08:03:26;;;;;;;7.68;2.95;;;25.10;92.20;;;;;;4993114;28;20107;-90
2021/09/22 08:05:52;;;;;;;6.93;2.90;;;25.50;92.20;;;;;;4992979;28;20397;-80
2021/09/22 08:08:26;;;;;;;4.82;2.70;;;26.30;91.20;;;;;;4993063;28;20031;-84
2021/09/22 08:10:52;;;;;;;8.00;2.72;;;26.40;90.60;;;;;;4992967;28;20501;-88
2021/09/22 08:13:18;;;;;;;12.48;3.35;;;26.20;90.90;;;;;;4993085;28;20031;-86
2021/09/22 08:15:44;;;;;;;8.80;2.97;;;26.90;90.30;;;;;;4992850;28;20046;-90
2021/09/22 08:18:10;;;;;;;7.93;3.10;;;28.20;88.90;;;;;;4993407;28;20037;-87
2021/09/22 08:20:36;;;;;;;3.83;2.55;;;29.20;86.10;;;;;;4993718;28;20050;-85
2021/09/22 08:23:02;;;;;;;4.95;2.70;;;29.40;84.60;;;;;;4994907;28;20561;-85
2021/09/22 08:25:28;;;;;;;4.80;2.92;;;29.20;84.00;;;;;;4998075;28;20473;-93
2021/09/22 08:27:54;;;;;;;4.03;2.30;;;28.90;84.30;;;;;;4998170;28;20035;-79
2021/09/22 08:30:19;;;;;;;11.35;2.88;;;28.60;85.30;;;;;;4998213;28;20073;-93
2021/09/22 08:32:45;;;;;;;8.65;2.55;;;28.70;84.90;;;;;;4997562;28;20030;-84
2021/09/22 08:35:11;;;;;;;11.00;2.30;;;29.30;83.50;;;;;;4997963;28;20121;-84
2021/09/22 08:37:38;;;;;;;4.97;2.83;;;29.50;83.50;;;;;;4997450;28;20113;-80
2021/09/22 08:40:05;;;;;;;9.38;2.83;;;29.40;83.30;;;;;;4997292;28;20530;-80
2021/09/22 08:42:31;;;;;;;6.80;3.30;;;29.20;83.70;;;;;;4997852;28;20061;-93
2021/09/22 08:44:58;;;;;;;9.23;2.95;;;29.10;82.70;;;;;;4997813;28;20058;-79
2021/09/22 08:47:23;;;;;;;10.05;3.05;;;28.40;85.40;;;;;;4997417;28;20026;-92
2021/09/22 08:49:51;;;;;;;23.27;3.78;;;28.20;86.20;;;;;;4997035;28;20050;-89
2021/09/22 08:52:17;;;;;;;9.55;3.42;;;28.20;86.80;;;;;;4996911;28;20030;-85
2021/09/22 08:54:44;;;;;;;26.77;5.43;;;27.90;87.10;;;;;;4997318;28;20109;-84
2021/09/22 08:57:10;;;;;;;11.90;2.90;;;27.70;87.60;;;;;;4997282;28;20045;-86
2021/09/22 08:59:36;;;;;;;9.70;3.10;;;27.70;87.20;;;;;;4997689;28;20035;-74
2021/09/22 09:02:12;;;;;;;6.38;2.90;;;27.60;87.00;;;;;;4997510;28;20480;-76
2021/09/22 09:04:40;;;;;;;10.55;2.78;;;27.40;87.00;;;;;;4998746;28;20050;-72
2021/09/22 09:07:07;;;;;;;9.57;3.45;;;27.10;88.10;;;;;;4997170;28;20121;-74
2021/09/22 09:09:42;;;;;;;10.80;3.60;;;26.80;88.50;;;;;;4998559;28;20037;-73
2021/09/22 09:12:17;;;;;;;15.77;3.70;;;26.90;88.50;;;;;;4997685;28;20038;-74
2021/09/22 09:14:53;;;;;;;5.65;3.42;;;26.90;88.20;;;;;;4997595;28;20077;-77
2021/09/22 09:17:52;;;;;;;7.72;3.40;;;26.80;88.00;;;;;;4997095;28;20109;-81
2021/09/22 09:20:25;;;;;;;5.63;3.67;;;26.70;88.20;;;;;;4964958;28;20122;-72
2021/09/22 09:23:06;;;;;;;13.88;3.28;;;26.80;88.40;;;;;;4996733;28;20097;-80
2021/09/22 09:25:35;;;;;;;7.45;4.05;;;27.00;87.80;;;;;;4996721;28;20574;-75
2021/09/22 09:28:22;;;;;;;6.47;3.58;;;27.00;88.80;;;;;;4996930;28;20026;-83
2021/09/22 09:30:52;;;;;;;9.05;2.70;;;27.00;87.80;;;;;;4996528;28;20030;-85
2021/09/22 09:33:37;;;;;;;8.40;3.50;;;26.90;87.90;;;;;;4996224;28;20121;-84
2021/09/22 09:36:33;;;;;;;4.70;3.22;;;27.00;88.30;;;;;;4995389;28;20497;-85
2021/09/22 09:39:06;;;;;;;8.20;3.78;;;27.00;88.90;;;;;;4980689;28;20373;-73
2021/09/22 09:41:51;;;;;;;5.57;3.53;;;27.00;87.70;;;;;;4996434;28;20081;-85
2021/09/22 09:44:29;;;;;;;5.07;2.90;;;27.10;88.30;;;;;;4997089;28;20068;-74
2021/09/22 09:47:04;;;;;;;10.05;3.60;;;27.10;87.40;;;;;;4996702;28;20117;-85
2021/09/22 09:49:31;;;;;;;5.20;3.47;;;27.10;88.10;;;;;;4996343;28;20046;-87
2021/09/22 09:51:58;;;;;;;14.80;3.92;;;26.90;88.00;;;;;;4996534;28;20034;-83
2021/09/22 09:54:28;;;;;;;11.07;3.38;;;26.90;88.20;;;;;;4996382;28;20062;-74
2021/09/22 09:56:56;;;;;;;5.78;3.58;;;26.80;88.50;;;;;;4996022;28;20057;-83
2021/09/22 09:59:24;;;;;;;8.90;3.35;;;26.70;89.20;;;;;;4995939;28;20436;-72
2021/09/22 10:01:54;;;;;;;7.85;3.35;;;26.90;89.70;;;;;;4996042;28;20081;-74
2021/09/22 10:04:23;;;;;;;6.25;3.50;;;27.20;88.80;;;;;;4995987;28;20038;-73
2021/09/22 10:06:50;;;;;;;9.65;3.50;;;27.30;88.30;;;;;;4995740;28;20026;-74
2021/09/22 10:09:17;;;;;;;5.22;3.33;;;27.10;89.90;;;;;;4995784;28;20489;-75
2021/09/22 10:11:46;;;;;;;3.88;3.42;;;27.20;90.20;;;;;;4996053;28;20030;-72
2021/09/22 10:14:14;;;;;;;9.63;4.03;;;27.10;90.30;;;;;;4996403;28;20030;-72
2021/09/22 10:16:41;;;;;;;6.28;3.55;;;27.10;90.40;;;;;;4996799;28;20528;-92
2021/09/22 10:19:07;;;;;;;3.88;3.35;;;27.10;90.30;;;;;;4996244;28;20104;-74
2021/09/22 10:21:34;;;;;;;7.65;3.78;;;27.30;90.50;;;;;;4995429;28;20038;-91
2021/09/22 10:24:11;;;;;;;9.30;4.32;;;27.20;90.30;;;;;;4996412;28;20029;-76
2021/09/22 10:26:38;;;;;;;6.25;3.50;;;27.00;90.30;;;;;;4995596;28;20489;-76
2021/09/22 10:29:25;;;;;;;10.63;3.85;;;26.90;90.50;;;;;;4995410;28;20034;-89
2021/09/22 10:31:52;;;;;;;5.35;3.80;;;26.90;91.00;;;;;;4994648;28;20034;-76
2021/09/22 10:34:28;;;;;;;8.75;4.30;;;26.70;90.70;;;;;;4995072;28;20039;-78
2021/09/22 10:36:54;;;;;;;4.95;4.45;;;26.60;91.10;;;;;;4995268;28;20064;-79
2021/09/22 10:39:35;;;;;;;12.32;4.82;;;26.50;91.00;;;;;;4994983;28;20030;-85
2021/09/22 10:42:01;;;;;;;6.60;4.03;;;26.10;91.00;;;;;;4995991;28;20085;-91
2021/09/22 10:44:37;;;;;;;11.75;3.75;;;26.10;91.30;;;;;;4979582;28;20070;-95
2021/09/22 10:47:26;;;;;;;5.18;3.50;;;25.90;92.00;;;;;;4995953;28;20038;-89
2021/09/22 10:49:54;;;;;;;7.45;3.92;;;25.60;92.90;;;;;;4994454;28;20046;-80
2021/09/22 10:52:37;;;;;;;6.53;3.90;;;25.50;93.20;;;;;;4994451;28;20073;-75
2021/09/22 10:55:07;;;;;;;6.60;4.00;;;25.50;93.40;;;;;;4994260;28;20065;-75
2021/09/22 10:57:32;;;;;;;12.82;4.75;;;25.30;93.70;;;;;;4994610;28;20069;-77
2021/09/22 11:00:18;;;;;;;13.57;4.35;;;25.20;94.20;;;;;;4995323;28;20038;-77
2021/09/22 11:02:53;;;;;;;5.22;3.70;;;25.10;93.80;;;;;;4995082;28;20069;-84
2021/09/22 11:05:28;;;;;;;10.82;3.90;;;25.10;94.10;;;;;;4996141;28;20050;-85
2021/09/22 11:08:01;;;;;;;6.93;3.80;;;25.00;94.20;;;;;;4996385;28;20041;-79
2021/09/22 11:10:30;;;;;;;6.13;3.88;;;24.90;94.00;;;;;;4995210;28;20075;-74
2021/09/22 11:13:18;;;;;;;8.10;3.70;;;24.80;94.20;;;;;;4994711;28;20225;-74
2021/09/22 11:15:45;;;;;;;5.05;3.83;;;24.50;94.60;;;;;;4994606;28;20050;-74
2021/09/22 11:18:11;;;;;;;3.78;3.38;;;24.20;95.10;;;;;;4994470;28;20176;-80
2021/09/22 11:20:37;;;;;;;5.65;3.58;;;24.20;95.50;;;;;;4994426;28;20117;-74
2021/09/22 11:23:08;;;;;;;8.30;3.88;;;24.30;95.70;;;;;;4993751;28;20465;-74
2021/09/22 11:25:34;;;;;;;8.55;3.72;;;24.30;95.40;;;;;;4993865;28;20041;-77
2021/09/22 11:28:07;;;;;;;9.93;4.10;;;24.40;95.40;;;;;;4993466;28;20030;-75
2021/09/22 11:30:36;;;;;;;10.43;3.90;;;24.60;95.60;;;;;;4993469;28;20030;-77
2021/09/22 11:33:02;;;;;;;7.97;4.40;;;24.70;95.20;;;;;;4993128;28;20034;-76
2021/09/22 11:35:31;;;;;;;9.93;3.65;;;24.70;95.10;;;;;;4993106;28;20065;-81
2021/09/22 11:37:59;;;;;;;7.18;3.67;;;24.60;95.30;;;;;;4993633;28;20030;-76
2021/09/22 11:40:38;;;;;;;5.07;3.28;;;24.70;95.40;;;;;;4993313;28;20058;-76
2021/09/22 11:43:10;;;;;;;8.05;4.00;;;24.90;95.20;;;;;;4994914;28;20030;-75
2021/09/22 11:45:51;;;;;;;9.50;3.97;;;25.00;95.10;;;;;;4995054;28;20042;-76
2021/09/22 11:48:29;;;;;;;6.20;4.35;;;24.90;95.20;;;;;;4993172;28;20038;-74
2021/09/22 11:50:59;;;;;;;10.63;4.30;;;24.90;95.20;;;;;;4993733;28;20029;-76
2021/09/22 11:53:30;;;;;;;7.10;3.78;;;24.90;95.30;;;;;;4995435;28;20038;-87
2021/09/22 11:55:58;;;;;;;9.40;3.90;;;24.90;95.20;;;;;;4994204;28;20412;-76
2021/09/22 11:58:28;;;;;;;5.88;3.20;;;24.90;95.30;;;;;;4993755;28;20033;-76
2021/09/22 12:01:02;;;;;;;6.65;3.85;;;24.80;95.50;;;;;;4994182;28;20041;-91
2021/09/22 12:03:35;;;;;;;6.57;3.78;;;24.70;95.50;;;;;;4993149;28;20571;-87
2021/09/22 12:06:05;;;;;;;8.88;3.63;;;24.70;95.70;;;;;;4993518;28;20034;-77
2021/09/22 12:08:37;;;;;;;5.95;3.55;;;24.50;95.70;;;;;;4994434;28;20065;-88
2021/09/22 12:11:04;;;;;;;5.80;3.47;;;24.50;96.20;;;;;;4993890;28;20050;-78
2021/09/22 12:13:42;;;;;;;6.95;3.80;;;24.40;95.80;;;;;;4993882;28;20046;-93
2021/09/22 12:16:08;;;;;;;4.57;3.75;;;24.50;96.00;;;;;;4994319;28;20030;-76
2021/09/22 12:18:34;;;;;;;7.78;3.58;;;24.60;95.90;;;;;;4993387;28;20041;-83
2021/09/22 12:21:02;;;;;;;5.07;3.40;;;24.50;95.90;;;;;;4993318;28;20034;-92
2021/09/22 12:23:31;;;;;;;6.28;3.85;;;24.50;96.10;;;;;;4976102;28;20244;-89
2021/09/22 12:26:12;;;;;;;16.30;4.10;;;24.40;96.20;;;;;;4993845;28;20054;-77
2021/09/22 12:28:39;;;;;;;4.87;3.87;;;24.50;96.50;;;;;;4992172;28;20092;-76
2021/09/22 12:31:36;;;;;;;4.50;3.72;;;24.50;96.50;;;;;;4993968;28;20265;-80
2021/09/22 12:34:02;;;;;;;11.10;3.97;;;24.40;96.60;;;;;;4992812;28;20035;-77
2021/09/22 12:36:28;;;;;;;5.28;3.60;;;24.30;96.50;;;;;;4992212;28;20098;-85
2021/09/22 12:38:54;;;;;;;8.68;3.30;;;24.30;97.00;;;;;;4993668;28;20027;-78
2021/09/22 12:41:22;;;;;;;8.25;3.60;;;24.30;97.50;;;;;;4994302;28;20447;-91
2021/09/22 12:43:58;;;;;;;8.75;3.78;;;24.20;97.70;;;;;;4994795;28;20092;-94
2021/09/22 12:46:37;;;;;;;13.48;3.35;;;24.30;97.70;;;;;;4994529;28;20070;-92
2021/09/22 12:49:19;;;;;;;8.95;3.50;;;24.30;97.70;;;;;;4994319;28;20035;-91
2021/09/22 12:51:47;;;;;;;16.13;3.70;;;24.20;97.40;;;;;;4993853;28;20396;-84
2021/09/22 12:54:14;;;;;;;4.47;3.20;;;24.10;97.50;;;;;;4993434;28;20392;-78